sensor_id;sensor_type;location;lat;lon;timestamp;pressure;altitude;pressure_sealevel;temperature;humidity
40490;BME280;26196;52.302;10.572;2023-04-22T00:00:57;100295.72;;;16.99;40.03
40490;BME280;26196;52.302;10.572;2023-04-22T00:04:57;100296.16;;;16.91;40.10
40490;BME280;26196;52.302;10.572;2023-04-22T00:09:32;100293.31;;;16.94;39.67
40490;BME280;26196;52.302;10.572;2023-04-22T00:13:33;100288.16;;;16.93;39.72
40490;BME280;26196;52.302;10.572;2023-04-22T00:17:33;100275.78;;;16.93;39.83
40490;BME280;26196;52.302;10.572;2023-04-22T00:21:33;100273.38;;;16.89;39.93
40490;BME280;26196;52.302;10.572;2023-04-22T00:26:11;100265.28;;;16.92;40.05
40490;BME280;26196;52.302;10.572;2023-04-22T00:30:11;100256.84;;;16.85;40.14
40490;BME280;26196;52.302;10.572;2023-04-22T00:34:12;100262.16;;;16.85;39.89
40490;BME280;26196;52.302;10.572;2023-04-22T00:38:12;100249.84;;;16.84;39.70
40490;BME280;26196;52.302;10.572;2023-04-22T00:42:13;100252.50;;;16.84;39.75
40490;BME280;26196;52.302;10.572;2023-04-22T00:46:15;100248.34;;;16.80;39.68
40490;BME280;26196;52.302;10.572;2023-04-22T00:50:15;100242.34;;;16.76;40.00
40490;BME280;26196;52.302;10.572;2023-04-22T00:54:16;100242.94;;;16.66;40.30
40490;BME280;26196;52.302;10.572;2023-04-22T00:58:17;100237.25;;;16.57;40.18
40490;BME280;26196;52.302;10.572;2023-04-22T01:02:18;100230.25;;;16.56;39.78
40490;BME280;26196;52.302;10.572;2023-04-22T01:06:18;100230.00;;;16.61;39.75
40490;BME280;26196;52.302;10.572;2023-04-22T01:10:22;100234.16;;;16.65;39.87
40490;BME280;26196;52.302;10.572;2023-04-22T01:14:57;100235.00;;;16.66;40.09
40490;BME280;26196;52.302;10.572;2023-04-22T01:18:57;100239.38;;;16.67;40.31
40490;BME280;26196;52.302;10.572;2023-04-22T01:23:01;100233.06;;;16.69;40.57
40490;BME280;26196;52.302;10.572;2023-04-22T01:27:03;100229.41;;;16.72;40.56
40490;BME280;26196;52.302;10.572;2023-04-22T01:31:03;100224.88;;;16.74;40.72
40490;BME280;26196;52.302;10.572;2023-04-22T01:35:04;100217.03;;;16.72;40.78
40490;BME280;26196;52.302;10.572;2023-04-22T01:39:05;100221.28;;;16.75;40.83
40490;BME280;26196;52.302;10.572;2023-04-22T01:43:40;100230.25;;;16.72;40.90
40490;BME280;26196;52.302;10.572;2023-04-22T01:47:41;100221.66;;;16.69;40.77
40490;BME280;26196;52.302;10.572;2023-04-22T01:51:41;100218.13;;;16.68;40.53
40490;BME280;26196;52.302;10.572;2023-04-22T01:55:42;100214.81;;;16.65;40.83
40490;BME280;26196;52.302;10.572;2023-04-22T01:59:42;100220.03;;;16.66;40.79
40490;BME280;26196;52.302;10.572;2023-04-22T02:03:42;100227.19;;;16.64;40.59
40490;BME280;26196;52.302;10.572;2023-04-22T02:08:20;100237.66;;;16.66;40.59
40490;BME280;26196;52.302;10.572;2023-04-22T02:12:20;100224.44;;;16.66;40.75
40490;BME280;26196;52.302;10.572;2023-04-22T02:20:58;100221.06;;;16.63;40.76
40490;BME280;26196;52.302;10.572;2023-04-22T02:24:59;100224.44;;;16.66;40.79
40490;BME280;26196;52.302;10.572;2023-04-22T02:29:00;100219.25;;;16.64;40.90
40490;BME280;26196;52.302;10.572;2023-04-22T02:33:35;100220.19;;;16.63;40.86
40490;BME280;26196;52.302;10.572;2023-04-22T02:42:10;100202.88;;;16.57;40.90
40490;BME280;26196;52.302;10.572;2023-04-22T02:46:11;100213.47;;;16.57;40.87
40490;BME280;26196;52.302;10.572;2023-04-22T02:50:12;100203.84;;;16.56;40.92
40490;BME280;26196;52.302;10.572;2023-04-22T02:54:12;100202.13;;;16.55;40.96
40490;BME280;26196;52.302;10.572;2023-04-22T02:58:13;100198.75;;;16.53;40.85
40490;BME280;26196;52.302;10.572;2023-04-22T03:02:14;100186.72;;;16.48;41.05
40490;BME280;26196;52.302;10.572;2023-04-22T03:06:15;100186.72;;;16.48;40.78
40490;BME280;26196;52.302;10.572;2023-04-22T03:10:15;100185.84;;;16.47;41.04
40490;BME280;26196;52.302;10.572;2023-04-22T03:14:15;100171.91;;;16.45;40.69
40490;BME280;26196;52.302;10.572;2023-04-22T03:18:16;100169.28;;;16.45;41.05
40490;BME280;26196;52.302;10.572;2023-04-22T03:22:50;100173.78;;;16.43;40.88
40490;BME280;26196;52.302;10.572;2023-04-22T03:26:50;100178.09;;;16.44;40.67
40490;BME280;26196;52.302;10.572;2023-04-22T03:35:28;100175.56;;;16.43;40.46
40490;BME280;26196;52.302;10.572;2023-04-22T03:39:28;100173.97;;;16.40;40.82
40490;BME280;26196;52.302;10.572;2023-04-22T03:44:06;100177.69;;;16.36;40.84
40490;BME280;26196;52.302;10.572;2023-04-22T03:48:06;100168.09;;;16.35;40.99
40490;BME280;26196;52.302;10.572;2023-04-22T03:52:41;100166.28;;;16.35;40.78
40490;BME280;26196;52.302;10.572;2023-04-22T03:56:42;100156.56;;;16.36;40.67
40490;BME280;26196;52.302;10.572;2023-04-22T04:00:42;100152.31;;;16.33;40.56
40490;BME280;26196;52.302;10.572;2023-04-22T04:05:16;100159.28;;;16.34;40.79
40490;BME280;26196;52.302;10.572;2023-04-22T04:09:17;100159.56;;;16.30;40.57
40490;BME280;26196;52.302;10.572;2023-04-22T04:13:17;100160.66;;;16.26;40.56
40490;BME280;26196;52.302;10.572;2023-04-22T04:17:17;100161.78;;;16.22;40.55
40490;BME280;26196;52.302;10.572;2023-04-22T04:21:18;100175.75;;;16.24;40.80
40490;BME280;26196;52.302;10.572;2023-04-22T04:25:53;100169.78;;;16.20;40.75
40490;BME280;26196;52.302;10.572;2023-04-22T04:29:53;100163.66;;;16.19;40.72
40490;BME280;26196;52.302;10.572;2023-04-22T04:33:55;100175.00;;;16.22;40.49
40490;BME280;26196;52.302;10.572;2023-04-22T04:37:56;100173.44;;;16.17;40.54
40490;BME280;26196;52.302;10.572;2023-04-22T04:42:30;100171.59;;;16.19;40.31
40490;BME280;26196;52.302;10.572;2023-04-22T04:46:32;100161.34;;;16.13;40.49
40490;BME280;26196;52.302;10.572;2023-04-22T04:50:33;100167.50;;;16.14;40.46
40490;BME280;26196;52.302;10.572;2023-04-22T04:54:34;100168.53;;;16.11;40.57
40490;BME280;26196;52.302;10.572;2023-04-22T04:58:35;100161.63;;;16.09;40.65
40490;BME280;26196;52.302;10.572;2023-04-22T05:02:35;100165.19;;;16.08;40.95
40490;BME280;26196;52.302;10.572;2023-04-22T05:06:36;100166.97;;;16.07;40.90
40490;BME280;26196;52.302;10.572;2023-04-22T05:10:36;100167.81;;;16.08;40.82
40490;BME280;26196;52.302;10.572;2023-04-22T05:14:36;100158.38;;;16.04;40.99
40490;BME280;26196;52.302;10.572;2023-04-22T05:23:48;100160.00;;;16.06;41.14
40490;BME280;26196;52.302;10.572;2023-04-22T05:37:40;100159.84;;;16.09;41.42
40490;BME280;26196;52.302;10.572;2023-04-22T05:46:37;100155.16;;;16.14;41.68
40490;BME280;26196;52.302;10.572;2023-04-22T05:51:12;100154.38;;;16.12;41.60
40490;BME280;26196;52.302;10.572;2023-04-22T05:55:46;100156.06;;;16.13;41.71
40490;BME280;26196;52.302;10.572;2023-04-22T05:59:47;100148.41;;;16.09;41.84
40490;BME280;26196;52.302;10.572;2023-04-22T06:04:25;100152.81;;;16.08;42.02
40490;BME280;26196;52.302;10.572;2023-04-22T06:09:02;100147.47;;;16.10;41.96
40490;BME280;26196;52.302;10.572;2023-04-22T06:13:02;100143.03;;;16.10;42.20
40490;BME280;26196;52.302;10.572;2023-04-22T06:17:40;100145.59;;;16.12;41.94
40490;BME280;26196;52.302;10.572;2023-04-22T06:22:17;100149.28;;;16.09;42.31
40490;BME280;26196;52.302;10.572;2023-04-22T06:26:17;100151.22;;;16.06;42.27
40490;BME280;26196;52.302;10.572;2023-04-22T06:30:18;100153.78;;;16.07;42.27
40490;BME280;26196;52.302;10.572;2023-04-22T06:34:19;100151.13;;;16.07;42.58
40490;BME280;26196;52.302;10.572;2023-04-22T06:38:19;100151.97;;;16.08;42.43
40490;BME280;26196;52.302;10.572;2023-04-22T06:42:54;100158.97;;;16.09;42.56
40490;BME280;26196;52.302;10.572;2023-04-22T06:46:54;100155.41;;;16.10;42.70
40490;BME280;26196;52.302;10.572;2023-04-22T06:50:54;100154.56;;;16.09;42.77
40490;BME280;26196;52.302;10.572;2023-04-22T06:54:56;100152.69;;;16.11;42.61
40490;BME280;26196;52.302;10.572;2023-04-22T07:03:33;100141.94;;;16.14;43.60
40490;BME280;26196;52.302;10.572;2023-04-22T07:07:34;100141.75;;;16.17;43.28
40490;BME280;26196;52.302;10.572;2023-04-22T07:11:34;100138.16;;;16.18;43.43
40490;BME280;26196;52.302;10.572;2023-04-22T07:16:09;100136.41;;;16.19;43.32
40490;BME280;26196;52.302;10.572;2023-04-22T07:20:10;100134.44;;;16.23;43.56
40490;BME280;26196;52.302;10.572;2023-04-22T07:24:11;100136.13;;;16.24;43.61
40490;BME280;26196;52.302;10.572;2023-04-22T07:28:46;100128.97;;;16.26;43.80
40490;BME280;26196;52.302;10.572;2023-04-22T07:32:46;100125.50;;;16.25;43.39
40490;BME280;26196;52.302;10.572;2023-04-22T07:37:21;100134.06;;;16.29;44.00
40490;BME280;26196;52.302;10.572;2023-04-22T07:41:21;100123.44;;;16.30;44.04
40490;BME280;26196;52.302;10.572;2023-04-22T07:45:21;100117.31;;;16.30;44.23
40490;BME280;26196;52.302;10.572;2023-04-22T07:49:22;100116.09;;;16.35;44.34
40490;BME280;26196;52.302;10.572;2023-04-22T07:53:23;100126.41;;;16.40;44.42
40490;BME280;26196;52.302;10.572;2023-04-22T07:57:23;100120.94;;;16.43;44.47
40490;BME280;26196;52.302;10.572;2023-04-22T08:01:24;100112.84;;;16.46;45.28
40490;BME280;26196;52.302;10.572;2023-04-22T08:05:59;100124.19;;;16.48;44.87
40490;BME280;26196;52.302;10.572;2023-04-22T08:09:59;100114.28;;;16.52;44.91
40490;BME280;26196;52.302;10.572;2023-04-22T08:13:59;100113.25;;;16.54;44.94
40490;BME280;26196;52.302;10.572;2023-04-22T08:18:00;100108.63;;;16.58;45.06
40490;BME280;26196;52.302;10.572;2023-04-22T08:22:00;100106.66;;;16.61;44.96
40490;BME280;26196;52.302;10.572;2023-04-22T08:26:01;100095.16;;;16.62;45.15
40490;BME280;26196;52.302;10.572;2023-04-22T08:30:03;100103.91;;;16.63;45.07
40490;BME280;26196;52.302;10.572;2023-04-22T08:34:37;100108.94;;;16.68;45.25
40490;BME280;26196;52.302;10.572;2023-04-22T08:38:38;100114.03;;;16.71;45.32
40490;BME280;26196;52.302;10.572;2023-04-22T08:43:15;100110.34;;;16.73;45.53
40490;BME280;26196;52.302;10.572;2023-04-22T08:47:15;100103.13;;;16.77;45.57
40490;BME280;26196;52.302;10.572;2023-04-22T08:51:17;100095.03;;;16.80;45.48
40490;BME280;26196;52.302;10.572;2023-04-22T08:59:29;100108.63;;;16.88;45.81
40490;BME280;26196;52.302;10.572;2023-04-22T09:03:30;100102.25;;;16.92;46.00
40490;BME280;26196;52.302;10.572;2023-04-22T09:08:05;100097.59;;;16.96;45.92
40490;BME280;26196;52.302;10.572;2023-04-22T09:12:06;100080.72;;;16.98;45.66
40490;BME280;26196;52.302;10.572;2023-04-22T09:16:46;100088.44;;;17.01;45.43
40490;BME280;26196;52.302;10.572;2023-04-22T09:20:48;100094.31;;;17.06;45.52
40490;BME280;26196;52.302;10.572;2023-04-22T09:25:24;100085.25;;;17.11;45.27
40490;BME280;26196;52.302;10.572;2023-04-22T09:30:00;100087.59;;;17.15;45.96
40490;BME280;26196;52.302;10.572;2023-04-22T09:39:15;100086.22;;;17.24;46.17
40490;BME280;26196;52.302;10.572;2023-04-22T09:48:29;100074.13;;;17.34;46.24
40490;BME280;26196;52.302;10.572;2023-04-22T09:53:08;100076.94;;;17.45;46.90
40490;BME280;26196;52.302;10.572;2023-04-22T09:57:44;100073.03;;;17.51;47.66
40490;BME280;26196;52.302;10.572;2023-04-22T10:01:44;100072.97;;;17.53;47.91
40490;BME280;26196;52.302;10.572;2023-04-22T10:06:19;100068.13;;;17.59;48.03
40490;BME280;26196;52.302;10.572;2023-04-22T10:10:54;100058.19;;;17.63;47.99
40490;BME280;26196;52.302;10.572;2023-04-22T10:15:32;100052.50;;;17.69;47.87
40490;BME280;26196;52.302;10.572;2023-04-22T10:19:34;100042.47;;;17.74;48.06
40490;BME280;26196;52.302;10.572;2023-04-22T10:23:35;100039.53;;;17.79;48.46
40490;BME280;26196;52.302;10.572;2023-04-22T10:28:12;100031.34;;;17.83;48.61
40490;BME280;26196;52.302;10.572;2023-04-22T10:32:48;100014.56;;;17.83;48.63
40490;BME280;26196;52.302;10.572;2023-04-22T10:37:26;100022.56;;;17.96;48.43
40490;BME280;26196;52.302;10.572;2023-04-22T10:55:54;100001.16;;;18.26;49.64
40490;BME280;26196;52.302;10.572;2023-04-22T10:59:57;99997.25;;;18.31;49.22
40490;BME280;26196;52.302;10.572;2023-04-22T11:04:30;99986.97;;;18.40;50.11
40490;BME280;26196;52.302;10.572;2023-04-22T11:09:07;99988.56;;;18.42;49.47
40490;BME280;26196;52.302;10.572;2023-04-22T11:13:13;99975.00;;;18.47;49.54
40490;BME280;26196;52.302;10.572;2023-04-22T11:17:14;99977.44;;;18.50;49.61
40490;BME280;26196;52.302;10.572;2023-04-22T11:21:49;99969.94;;;18.56;48.55
40490;BME280;26196;52.302;10.572;2023-04-22T11:35:45;99959.75;;;18.76;49.15
40490;BME280;26196;52.302;10.572;2023-04-22T11:39:48;99948.09;;;18.78;48.84
40490;BME280;26196;52.302;10.572;2023-04-22T11:44:24;99943.09;;;18.87;49.59
40490;BME280;26196;52.302;10.572;2023-04-22T11:53:37;99924.28;;;19.02;49.94
40490;BME280;26196;52.302;10.572;2023-04-22T12:07:28;99936.13;;;19.22;48.80
40490;BME280;26196;52.302;10.572;2023-04-22T12:11:29;99936.41;;;19.31;48.86
40490;BME280;26196;52.302;10.572;2023-04-22T12:20:41;99927.78;;;19.40;48.71
40490;BME280;26196;52.302;10.572;2023-04-22T12:24:43;99920.72;;;19.52;48.40
40490;BME280;26196;52.302;10.572;2023-04-22T12:33:59;99910.28;;;19.61;47.97
40490;BME280;26196;52.302;10.572;2023-04-22T12:38:35;99907.38;;;19.64;47.87
40490;BME280;26196;52.302;10.572;2023-04-22T12:43:10;99903.59;;;19.69;47.52
40490;BME280;26196;52.302;10.572;2023-04-22T12:47:48;99910.09;;;19.76;47.41
40490;BME280;26196;52.302;10.572;2023-04-22T12:52:23;99899.16;;;19.80;46.87
40490;BME280;26196;52.302;10.572;2023-04-22T13:01:20;99881.19;;;19.84;46.70
40490;BME280;26196;52.302;10.572;2023-04-22T13:05:55;99884.22;;;19.91;46.83
40490;BME280;26196;52.302;10.572;2023-04-22T13:10:32;99891.84;;;19.95;46.51
40490;BME280;26196;52.302;10.572;2023-04-22T13:15:10;99884.47;;;19.99;46.67
40490;BME280;26196;52.302;10.572;2023-04-22T13:19:44;99886.03;;;20.01;47.04
40490;BME280;26196;52.302;10.572;2023-04-22T13:24:20;99879.31;;;20.08;46.66
40490;BME280;26196;52.302;10.572;2023-04-22T13:28:58;99871.22;;;20.10;46.38
40490;BME280;26196;52.302;10.572;2023-04-22T13:32:58;99872.81;;;20.13;46.46
40490;BME280;26196;52.302;10.572;2023-04-22T13:36:59;99863.72;;;20.15;46.65
40490;BME280;26196;52.302;10.572;2023-04-22T13:40:59;99859.38;;;20.14;46.83
40490;BME280;26196;52.302;10.572;2023-04-22T13:45:37;99866.03;;;20.20;46.49
40490;BME280;26196;52.302;10.572;2023-04-22T13:50:11;99854.31;;;20.22;46.58
40490;BME280;26196;52.302;10.572;2023-04-22T13:54:11;99845.41;;;20.23;46.13
40490;BME280;26196;52.302;10.572;2023-04-22T13:58:46;99840.91;;;20.24;46.16
40490;BME280;26196;52.302;10.572;2023-04-22T14:03:24;99844.06;;;20.29;46.19
40490;BME280;26196;52.302;10.572;2023-04-22T14:07:24;99852.78;;;20.31;46.47
40490;BME280;26196;52.302;10.572;2023-04-22T14:11:24;99836.81;;;20.31;46.72
40490;BME280;26196;52.302;10.572;2023-04-22T14:15:59;99830.44;;;20.33;46.33
40490;BME280;26196;52.302;10.572;2023-04-22T14:20:00;99831.25;;;20.34;46.09
40490;BME280;26196;52.302;10.572;2023-04-22T14:24:35;99832.69;;;20.38;46.36
40490;BME280;26196;52.302;10.572;2023-04-22T14:29:13;99830.91;;;20.39;46.09
40490;BME280;26196;52.302;10.572;2023-04-22T14:33:48;99823.78;;;20.39;45.97
40490;BME280;26196;52.302;10.572;2023-04-22T14:37:48;99819.06;;;20.43;46.41
40490;BME280;26196;52.302;10.572;2023-04-22T14:41:49;99811.91;;;20.43;45.51
40490;BME280;26196;52.302;10.572;2023-04-22T14:46:23;99810.97;;;20.44;45.75
40490;BME280;26196;52.302;10.572;2023-04-22T14:50:24;99804.56;;;20.47;46.03
40490;BME280;26196;52.302;10.572;2023-04-22T14:59:19;99800.91;;;20.48;46.26
40490;BME280;26196;52.302;10.572;2023-04-22T15:03:53;99798.16;;;20.49;46.00
40490;BME280;26196;52.302;10.572;2023-04-22T15:08:31;99793.53;;;20.51;46.01
40490;BME280;26196;52.302;10.572;2023-04-22T15:13:08;99781.94;;;20.52;46.00
40490;BME280;26196;52.302;10.572;2023-04-22T15:21:44;99773.66;;;20.57;45.71
40490;BME280;26196;52.302;10.572;2023-04-22T15:26:19;99757.56;;;20.59;45.34
40490;BME280;26196;52.302;10.572;2023-04-22T15:30:20;99753.81;;;20.61;45.43
40490;BME280;26196;52.302;10.572;2023-04-22T15:34:21;99756.34;;;20.63;45.23
40490;BME280;26196;52.302;10.572;2023-04-22T15:38:22;99758.88;;;20.64;45.19
40490;BME280;26196;52.302;10.572;2023-04-22T15:42:57;99753.53;;;20.64;45.06
40490;BME280;26196;52.302;10.572;2023-04-22T15:46:58;99754.16;;;20.68;44.96
40490;BME280;26196;52.302;10.572;2023-04-22T15:51:33;99752.44;;;20.67;44.82
40490;BME280;26196;52.302;10.572;2023-04-22T15:56:10;99747.13;;;20.67;44.98
40490;BME280;26196;52.302;10.572;2023-04-22T16:00:11;99747.13;;;20.67;45.11
40490;BME280;26196;52.302;10.572;2023-04-22T16:04:12;99738.22;;;20.68;44.40
40490;BME280;26196;52.302;10.572;2023-04-22T16:08:12;99744.38;;;20.68;44.73
40490;BME280;26196;52.302;10.572;2023-04-22T16:12:13;99741.56;;;20.70;44.89
40490;BME280;26196;52.302;10.572;2023-04-22T16:16:14;99748.59;;;20.71;44.54
40490;BME280;26196;52.302;10.572;2023-04-22T16:20:14;99740.72;;;20.69;44.54
40490;BME280;26196;52.302;10.572;2023-04-22T16:24:14;99735.41;;;20.69;44.37
40490;BME280;26196;52.302;10.572;2023-04-22T16:28:15;99733.72;;;20.68;44.17
40490;BME280;26196;52.302;10.572;2023-04-22T16:32:15;99737.22;;;20.69;44.58
40490;BME280;26196;52.302;10.572;2023-04-22T16:36:52;99738.06;;;20.69;44.48
40490;BME280;26196;52.302;10.572;2023-04-22T16:40:53;99736.25;;;20.70;44.04
40490;BME280;26196;52.302;10.572;2023-04-22T16:44:53;99736.25;;;20.70;43.96
40490;BME280;26196;52.302;10.572;2023-04-22T16:49:31;99733.59;;;20.70;44.08
40490;BME280;26196;52.302;10.572;2023-04-22T16:54:05;99730.91;;;20.70;44.25
40490;BME280;26196;52.302;10.572;2023-04-22T16:58:40;99730.91;;;20.70;44.46
40490;BME280;26196;52.302;10.572;2023-04-22T17:03:18;99716.69;;;20.71;44.09
40490;BME280;26196;52.302;10.572;2023-04-22T17:07:54;99709.66;;;20.70;44.09
40490;BME280;26196;52.302;10.572;2023-04-22T17:12:28;99710.53;;;20.70;43.63
40490;BME280;26196;52.302;10.572;2023-04-22T17:17:06;99714.97;;;20.70;43.94
40490;BME280;26196;52.302;10.572;2023-04-22T17:26:03;99707.13;;;20.68;43.62
40490;BME280;26196;52.302;10.572;2023-04-22T17:30:37;99710.63;;;20.69;43.59
40490;BME280;26196;52.302;10.572;2023-04-22T17:35:14;99701.94;;;20.67;43.31
40490;BME280;26196;52.302;10.572;2023-04-22T17:39:50;99701.94;;;20.67;43.64
40490;BME280;26196;52.302;10.572;2023-04-22T17:44:24;99695.66;;;20.68;43.67
40490;BME280;26196;52.302;10.572;2023-04-22T17:48:59;99700.13;;;20.67;43.39
40490;BME280;26196;52.302;10.572;2023-04-22T18:03:00;99695.91;;;20.65;41.80
40490;BME280;26196;52.302;10.572;2023-04-22T18:07:35;99690.72;;;20.63;41.49
40490;BME280;26196;52.302;10.572;2023-04-22T18:11:35;99703.16;;;20.63;41.06
40490;BME280;26196;52.302;10.572;2023-04-22T18:20:16;99699.78;;;20.61;41.32
40490;BME280;26196;52.302;10.572;2023-04-22T18:24:52;99709.69;;;20.59;41.62
40490;BME280;26196;52.302;10.572;2023-04-22T18:29:29;99701.88;;;20.57;41.67
40490;BME280;26196;52.302;10.572;2023-04-22T18:33:30;99709.84;;;20.57;41.47
40490;BME280;26196;52.302;10.572;2023-04-22T18:38:07;99716.00;;;20.58;41.94
40490;BME280;26196;52.302;10.572;2023-04-22T18:42:07;99712.84;;;20.52;41.27
40490;BME280;26196;52.302;10.572;2023-04-22T18:46:45;99718.16;;;20.52;41.15
40490;BME280;26196;52.302;10.572;2023-04-22T18:51:20;99717.31;;;20.52;41.21
40490;BME280;26196;52.302;10.572;2023-04-22T19:00:34;99725.66;;;20.47;40.95
40490;BME280;26196;52.302;10.572;2023-04-22T19:05:12;99725.66;;;20.47;40.96
40490;BME280;26196;52.302;10.572;2023-04-22T19:09:47;99722.25;;;20.45;40.80
40490;BME280;26196;52.302;10.572;2023-04-22T19:14:24;99732.06;;;20.45;41.10
40490;BME280;26196;52.302;10.572;2023-04-22T19:18:58;99724.91;;;20.45;41.05
40490;BME280;26196;52.302;10.572;2023-04-22T19:23:36;99736.75;;;20.41;41.44
40490;BME280;26196;52.302;10.572;2023-04-22T19:28:11;99754.41;;;20.42;41.40
40490;BME280;26196;52.302;10.572;2023-04-22T19:37:08;99764.22;;;20.42;41.67
40490;BME280;26196;52.302;10.572;2023-04-22T19:41:45;99771.31;;;20.41;42.14
40490;BME280;26196;52.302;10.572;2023-04-22T19:46:22;99784.59;;;20.41;42.29
40490;BME280;26196;52.302;10.572;2023-04-22T19:51:00;99781.72;;;20.44;42.39
40490;BME280;26196;52.302;10.572;2023-04-22T19:55:35;99761.31;;;20.33;42.91
40490;BME280;26196;52.302;10.572;2023-04-22T20:00:10;99787.16;;;20.43;43.06
40490;BME280;26196;52.302;10.572;2023-04-22T20:04:45;99773.88;;;20.43;43.24
40490;BME280;26196;52.302;10.572;2023-04-22T20:09:19;99781.00;;;20.42;43.13
40490;BME280;26196;52.302;10.572;2023-04-22T20:13:55;99772.03;;;20.43;43.14
40490;BME280;26196;52.302;10.572;2023-04-22T20:17:55;99761.31;;;20.45;43.45
40490;BME280;26196;52.302;10.572;2023-04-22T20:21:57;99762.88;;;20.47;43.08
40490;BME280;26196;52.302;10.572;2023-04-22T20:25:57;99754.16;;;20.45;43.38
40490;BME280;26196;52.302;10.572;2023-04-22T20:30:32;99753.19;;;20.46;43.51
40490;BME280;26196;52.302;10.572;2023-04-22T20:34:33;99755.72;;;20.48;43.59
40490;BME280;26196;52.302;10.572;2023-04-22T20:38:35;99747.88;;;20.46;43.38
40490;BME280;26196;52.302;10.572;2023-04-22T20:43:12;99736.41;;;20.46;43.57
40490;BME280;26196;52.302;10.572;2023-04-22T20:47:47;99729.25;;;20.46;43.51
40490;BME280;26196;52.302;10.572;2023-04-22T20:51:47;99732.66;;;20.48;43.29
40490;BME280;26196;52.302;10.572;2023-04-22T20:56:23;99728.31;;;20.47;43.86
40490;BME280;26196;52.302;10.572;2023-04-22T21:00:58;99727.47;;;20.47;43.53
40490;BME280;26196;52.302;10.572;2023-04-22T21:14:48;99727.59;;;20.45;43.63
40490;BME280;26196;52.302;10.572;2023-04-22T21:18:50;99727.59;;;20.45;43.54
40490;BME280;26196;52.302;10.572;2023-04-22T21:22:56;99724.44;;;20.40;43.65
40490;BME280;26196;52.302;10.572;2023-04-22T21:26:57;99732.16;;;20.43;43.54
40490;BME280;26196;52.302;10.572;2023-04-22T21:31:32;99738.47;;;20.42;43.67
40490;BME280;26196;52.302;10.572;2023-04-22T21:35:33;99732.31;;;20.42;43.65
40490;BME280;26196;52.302;10.572;2023-04-22T21:39:34;99741.13;;;20.42;43.74
40490;BME280;26196;52.302;10.572;2023-04-22T21:43:35;99742.94;;;20.42;43.57
40490;BME280;26196;52.302;10.572;2023-04-22T21:47:35;99733.16;;;20.42;43.78
40490;BME280;26196;52.302;10.572;2023-04-22T21:51:35;99735.09;;;20.40;43.73
40490;BME280;26196;52.302;10.572;2023-04-22T21:55:36;99731.44;;;20.41;43.65
40490;BME280;26196;52.302;10.572;2023-04-22T21:59:36;99725.28;;;20.41;43.55
40490;BME280;26196;52.302;10.572;2023-04-22T22:03:37;99727.47;;;20.36;43.59
40490;BME280;26196;52.302;10.572;2023-04-22T22:07:37;99730.84;;;20.38;43.66
40490;BME280;26196;52.302;10.572;2023-04-22T22:11:39;99737.88;;;20.39;43.96
40490;BME280;26196;52.302;10.572;2023-04-22T22:15:40;99739.09;;;20.35;43.65
40490;BME280;26196;52.302;10.572;2023-04-22T22:19:40;99735.34;;;20.37;43.70
40490;BME280;26196;52.302;10.572;2023-04-22T22:23:41;99742.56;;;20.35;43.64
40490;BME280;26196;52.302;10.572;2023-04-22T22:27:42;99740.75;;;20.36;43.89
40490;BME280;26196;52.302;10.572;2023-04-22T22:31:47;99741.63;;;20.36;43.78
40490;BME280;26196;52.302;10.572;2023-04-22T22:36:22;99748.72;;;20.36;43.76
40490;BME280;26196;52.302;10.572;2023-04-22T22:40:22;99755.13;;;20.33;43.24
40490;BME280;26196;52.302;10.572;2023-04-22T22:44:23;99750.06;;;20.30;43.68
40490;BME280;26196;52.302;10.572;2023-04-22T22:53:00;99749.13;;;20.31;43.76
40490;BME280;26196;52.302;10.572;2023-04-22T22:57:01;99760.69;;;20.30;43.70
40490;BME280;26196;52.302;10.572;2023-04-22T23:01:02;99752.88;;;20.28;43.78
40490;BME280;26196;52.302;10.572;2023-04-22T23:05:39;99751.06;;;20.29;43.76
40490;BME280;26196;52.302;10.572;2023-04-22T23:09:40;99754.56;;;20.29;43.33
40490;BME280;26196;52.302;10.572;2023-04-22T23:13:40;99755.75;;;20.25;43.61
40490;BME280;26196;52.302;10.572;2023-04-22T23:17:40;99756.63;;;20.26;43.67
40490;BME280;26196;52.302;10.572;2023-04-22T23:22:15;99755.88;;;20.24;43.55
40490;BME280;26196;52.302;10.572;2023-04-22T23:26:16;99747.91;;;20.24;43.50
40490;BME280;26196;52.302;10.572;2023-04-22T23:30:17;99750.69;;;20.22;43.53
40490;BME280;26196;52.302;10.572;2023-04-22T23:34:19;99752.50;;;20.22;43.46
40490;BME280;26196;52.302;10.572;2023-04-22T23:38:54;99757.91;;;20.20;43.20
40490;BME280;26196;52.302;10.572;2023-04-22T23:42:55;99752.75;;;20.19;43.29
40490;BME280;26196;52.302;10.572;2023-04-22T23:46:55;99753.00;;;20.16;43.23
40490;BME280;26196;52.302;10.572;2023-04-22T23:50:56;99748.03;;;20.11;43.51
40490;BME280;26196;52.302;10.572;2023-04-22T23:54:57;99754.94;;;20.14;43.28
40490;BME280;26196;52.302;10.572;2023-04-22T23:58:59;99759.25;;;20.15;43.34
